Time;durP1;ratioP1;P1;durP2;ratioP2;P2;SDS_P1;SDS_P2;PMS_P1;PMS_P2;Temp;Humidity;BMP_temperature;BMP_pressure;BME280_temperature;BME280_humidity;BME280_pressure;Samples;Min_cycle;Max_cycle;Signal;HPM_P1;HPM_P2
2022/01/02 00:00:22;;;;;;;6.40;4.32;;;12.70;99.90;;;;;;5011896;28;20196;-75
2022/01/02 00:02:52;;;;;;;5.43;4.18;;;12.70;99.90;;;;;;5011457;28;20543;-75
2022/01/02 00:05:22;;;;;;;5.75;4.55;;;12.70;99.90;;;;;;4977979;28;20171;-75
2022/01/02 00:07:57;;;;;;;4.43;3.60;;;12.70;99.90;;;;;;4994181;28;20660;-75
2022/01/02 00:10:24;;;;;;;4.47;3.42;;;12.70;99.90;;;;;;5011942;28;20162;-75
2022/01/02 00:12:54;;;;;;;5.28;4.05;;;12.70;99.90;;;;;;4993824;28;20186;-75
2022/01/02 00:15:20;;;;;;;4.43;4.03;;;12.70;99.90;;;;;;4994278;28;20687;-75
2022/01/02 00:17:49;;;;;;;4.50;4.10;;;12.70;99.90;;;;;;4994188;28;20250;-76
2022/01/02 00:20:21;;;;;;;5.18;4.15;;;12.70;99.90;;;;;;4994355;28;20262;-76
2022/01/02 00:22:50;;;;;;;9.60;5.40;;;12.70;99.90;;;;;;5011280;28;20206;-76
2022/01/02 00:25:29;;;;;;;4.13;3.70;;;12.70;99.90;;;;;;5011714;28;20174;-75
2022/01/02 00:27:56;;;;;;;4.75;3.10;;;12.70;99.90;;;;;;5011690;28;20220;-75
2022/01/02 00:30:24;;;;;;;3.65;3.13;;;12.80;99.90;;;;;;4995368;28;20192;-75
2022/01/02 00:32:51;;;;;;;4.10;3.22;;;12.80;99.90;;;;;;4993757;28;20193;-76
2022/01/02 00:35:16;;;;;;;5.95;4.38;;;12.80;99.90;;;;;;4994142;28;20308;-75
2022/01/02 00:37:42;;;;;;;4.57;4.07;;;12.80;99.90;;;;;;4994014;28;20265;-76
2022/01/02 00:40:09;;;;;;;4.57;4.00;;;12.80;99.90;;;;;;4993898;28;20175;-75
2022/01/02 00:42:39;;;;;;;4.78;3.80;;;12.80;99.90;;;;;;5011301;28;20233;-75
2022/01/02 00:45:26;;;;;;;3.90;3.17;;;12.80;99.90;;;;;;4993742;28;20167;-75
2022/01/02 00:47:57;;;;;;;5.20;3.40;;;12.90;99.90;;;;;;4993793;28;20633;-75
2022/01/02 00:50:50;;;;;;;4.10;3.70;;;12.80;99.90;;;;;;5011401;28;20158;-75
2022/01/02 00:53:20;;;;;;;4.03;3.55;;;12.90;99.90;;;;;;5004695;28;20237;-75
2022/01/02 00:55:47;;;;;;;5.18;3.75;;;12.90;99.90;;;;;;4980373;28;20540;-75
2022/01/02 00:58:16;;;;;;;4.03;3.63;;;12.90;99.90;;;;;;5015249;28;20293;-75
2022/01/02 01:00:50;;;;;;;4.97;3.95;;;12.90;99.90;;;;;;4997601;28;20170;-75
2022/01/02 01:03:29;;;;;;;3.50;3.20;;;12.90;99.90;;;;;;4996943;28;20693;-75
2022/01/02 01:05:57;;;;;;;3.97;3.20;;;12.90;99.90;;;;;;5014870;28;20178;-75
2022/01/02 01:08:23;;;;;;;5.65;4.00;;;12.90;99.90;;;;;;4997478;28;20210;-75
2022/01/02 01:10:50;;;;;;;2.80;2.42;;;12.90;99.90;;;;;;5014959;28;20166;-75
2022/01/02 01:13:17;;;;;;;4.57;3.70;;;13.00;99.90;;;;;;5014332;28;20217;-75
2022/01/02 01:15:43;;;;;;;4.97;2.65;;;13.00;99.90;;;;;;4997316;28;20212;-75
2022/01/02 01:18:09;;;;;;;4.97;3.78;;;13.00;99.90;;;;;;5014829;28;20729;-75
2022/01/02 01:20:40;;;;;;;4.37;3.60;;;13.00;99.90;;;;;;5014781;28;20178;-75
2022/01/02 01:23:06;;;;;;;5.63;4.05;;;13.00;99.90;;;;;;4996767;28;20218;-75
2022/01/02 01:25:32;;;;;;;4.75;3.40;;;13.00;99.90;;;;;;4997159;28;20174;-75
2022/01/02 01:27:59;;;;;;;3.30;2.80;;;13.00;99.90;;;;;;4996909;28;20225;-75
2022/01/02 01:30:27;;;;;;;3.55;3.00;;;13.00;99.90;;;;;;4997020;28;20577;-75
2022/01/02 01:32:53;;;;;;;3.92;3.53;;;13.10;99.90;;;;;;4996623;28;20323;-75
2022/01/02 01:35:21;;;;;;;4.45;3.75;;;13.10;99.90;;;;;;5014480;28;20166;-75
2022/01/02 01:37:48;;;;;;;4.27;3.20;;;13.10;99.90;;;;;;4996658;28;20178;-75
2022/01/02 01:40:16;;;;;;;4.95;3.60;;;13.10;99.90;;;;;;4980901;28;20934;-75
2022/01/02 01:42:45;;;;;;;3.67;3.03;;;13.10;99.90;;;;;;4996035;28;20186;-75
2022/01/02 01:47:54;;;;;;;6.07;4.10;;;13.10;99.90;;;;;;4995682;28;20182;-75
2022/01/02 01:50:24;;;;;;;4.47;3.07;;;13.10;99.90;;;;;;5005304;28;20177;-75
2022/01/02 01:52:50;;;;;;;3.70;3.30;;;13.00;99.90;;;;;;4996141;28;20601;-75
2022/01/02 01:55:16;;;;;;;4.30;3.90;;;13.10;99.90;;;;;;4996273;28;20579;-75
2022/01/02 01:57:43;;;;;;;4.10;3.42;;;13.00;99.90;;;;;;4996471;28;20168;-75
2022/01/02 02:00:14;;;;;;;4.70;4.30;;;13.10;99.90;;;;;;4996535;28;20182;-75
2022/01/02 02:02:51;;;;;;;4.47;3.85;;;13.10;99.90;;;;;;4996055;28;20674;-75
2022/01/02 02:05:19;;;;;;;4.63;3.38;;;13.10;99.90;;;;;;4995707;28;20240;-76
2022/01/02 02:07:48;;;;;;;5.05;3.63;;;13.10;99.90;;;;;;4995602;28;20539;-75
2022/01/02 02:10:41;;;;;;;4.85;3.65;;;13.10;99.90;;;;;;4996264;28;20170;-75
2022/01/02 02:13:10;;;;;;;7.22;4.05;;;13.10;99.90;;;;;;4980101;28;20619;-75
2022/01/02 02:15:41;;;;;;;5.07;3.33;;;13.10;99.90;;;;;;4996133;28;20202;-75
2022/01/02 02:18:08;;;;;;;5.13;4.00;;;13.10;99.90;;;;;;4996201;28;20590;-74
2022/01/02 02:20:36;;;;;;;4.90;4.40;;;13.10;99.90;;;;;;4996022;28;20728;-75
2022/01/02 02:23:07;;;;;;;4.00;3.60;;;13.00;99.90;;;;;;4963911;28;20885;-75
2022/01/02 02:25:37;;;;;;;3.63;3.33;;;13.00;99.90;;;;;;4996104;28;20205;-75
2022/01/02 02:28:05;;;;;;;4.40;3.80;;;13.00;99.90;;;;;;4995740;28;20186;-75
2022/01/02 02:30:35;;;;;;;4.78;3.97;;;13.10;99.90;;;;;;4995906;28;20561;-75
2022/01/02 02:33:03;;;;;;;5.95;4.28;;;13.10;99.90;;;;;;5011544;28;20244;-75
2022/01/02 02:35:30;;;;;;;4.80;4.35;;;13.10;99.90;;;;;;4995829;28;20585;-75
2022/01/02 02:37:56;;;;;;;4.82;4.28;;;13.00;99.90;;;;;;4995738;28;20249;-75
2022/01/02 02:40:24;;;;;;;5.00;3.97;;;13.00;99.90;;;;;;4995194;28;20265;-75
2022/01/02 02:51:08;;;;;;;4.63;3.75;;;13.10;99.90;;;;;;4995589;28;20175;-75
2022/01/02 02:53:37;;;;;;;6.90;4.50;;;13.10;99.90;;;;;;4995038;28;20187;-75
2022/01/02 02:56:14;;;;;;;5.25;4.20;;;13.10;99.90;;;;;;4979114;28;20170;-75
2022/01/02 02:58:41;;;;;;;4.97;4.57;;;13.10;99.90;;;;;;5012868;28;20233;-75
2022/01/02 03:01:13;;;;;;;4.85;3.75;;;13.10;99.90;;;;;;4979530;28;20178;-75
2022/01/02 03:03:40;;;;;;;5.80;4.33;;;13.10;99.90;;;;;;5012452;28;20599;-75
2022/01/02 03:06:06;;;;;;;4.38;3.63;;;13.10;99.90;;;;;;5012755;28;20597;-75
2022/01/02 03:08:34;;;;;;;3.95;3.65;;;13.10;99.90;;;;;;4979114;28;20205;-75
2022/01/02 03:11:00;;;;;;;4.97;4.47;;;13.10;99.90;;;;;;4978842;28;20277;-75
2022/01/02 03:13:26;;;;;;;4.13;3.72;;;13.10;99.90;;;;;;5012322;28;20604;-75
2022/01/02 03:15:52;;;;;;;5.15;4.53;;;13.00;99.90;;;;;;4994992;28;20558;-75
2022/01/02 03:18:18;;;;;;;5.87;3.87;;;13.00;99.90;;;;;;5012297;28;20261;-75
2022/01/02 03:20:44;;;;;;;5.15;4.32;;;13.00;99.90;;;;;;4994883;28;20194;-75
2022/01/02 03:23:10;;;;;;;4.17;3.77;;;13.00;99.90;;;;;;4994517;28;20249;-75
2022/01/02 03:25:36;;;;;;;4.78;4.35;;;13.10;99.90;;;;;;5012335;28;20174;-75
2022/01/02 03:28:03;;;;;;;4.90;4.40;;;13.10;99.90;;;;;;4994719;28;20626;-75
2022/01/02 03:30:29;;;;;;;5.63;4.70;;;13.10;99.90;;;;;;4978654;28;20265;-75
2022/01/02 03:32:55;;;;;;;4.97;4.35;;;13.10;99.90;;;;;;4994409;28;20182;-75
2022/01/02 03:35:21;;;;;;;6.10;4.50;;;13.10;99.90;;;;;;4994846;28;20630;-75
2022/01/02 03:37:47;;;;;;;3.95;3.40;;;13.20;99.90;;;;;;4994768;28;20181;-75
2022/01/02 03:40:13;;;;;;;4.37;3.87;;;13.10;99.90;;;;;;4994789;28;20174;-75
2022/01/02 03:42:39;;;;;;;4.90;4.40;;;13.20;99.90;;;;;;4994561;28;20605;-75
2022/01/02 03:45:06;;;;;;;5.13;4.53;;;13.10;99.90;;;;;;4978194;28;20982;-75
2022/01/02 03:47:32;;;;;;;5.43;4.22;;;13.10;99.90;;;;;;4994638;28;20565;-75
2022/01/02 03:49:58;;;;;;;4.80;4.30;;;13.10;99.90;;;;;;4994648;28;20551;-76
2022/01/02 03:52:24;;;;;;;4.40;4.00;;;13.10;99.90;;;;;;4994628;28;20597;-75
2022/01/02 03:54:51;;;;;;;6.32;3.88;;;13.10;99.90;;;;;;4994416;28;21133;-75
2022/01/02 03:57:17;;;;;;;5.00;4.50;;;13.20;99.90;;;;;;4995209;28;20182;-75
2022/01/02 03:59:43;;;;;;;5.37;3.63;;;13.20;99.90;;;;;;4995183;28;20562;-75
2022/01/02 04:02:10;;;;;;;5.93;4.53;;;13.20;99.90;;;;;;4994963;28;20577;-75
2022/01/02 04:04:36;;;;;;;3.90;3.57;;;13.20;99.90;;;;;;4995807;28;20166;-75
2022/01/02 04:07:02;;;;;;;6.03;4.60;;;13.20;99.90;;;;;;5013079;28;20626;-75
2022/01/02 04:09:27;;;;;;;5.03;4.53;;;13.10;99.90;;;;;;4981992;28;21274;-75
2022/01/02 04:11:53;;;;;;;4.77;4.13;;;13.10;99.90;;;;;;4995767;28;20558;-74
2022/01/02 04:14:19;;;;;;;6.73;5.03;;;13.10;99.90;;;;;;5005596;28;20270;-75
2022/01/02 04:16:45;;;;;;;6.70;4.17;;;13.10;99.90;;;;;;5006793;28;20657;-75
2022/01/02 04:19:10;;;;;;;4.80;4.13;;;13.00;99.90;;;;;;5021969;28;20619;-75
2022/01/02 04:21:38;;;;;;;4.28;3.85;;;13.00;99.90;;;;;;5005624;28;20186;-75
2022/01/02 04:24:04;;;;;;;4.63;3.95;;;13.00;99.90;;;;;;5007324;28;20233;-77
2022/01/02 04:26:30;;;;;;;4.07;3.70;;;13.00;99.90;;;;;;5027451;28;20197;-77
2022/01/02 04:28:57;;;;;;;5.40;4.05;;;13.00;99.90;;;;;;5003614;28;20775;-77
2022/01/02 04:31:23;;;;;;;6.50;4.40;;;12.90;99.90;;;;;;4999278;28;20201;-77
2022/01/02 04:33:49;;;;;;;5.68;3.83;;;12.90;99.90;;;;;;4998965;28;20410;-77
2022/01/02 04:36:16;;;;;;;5.77;4.10;;;12.90;99.90;;;;;;4999253;28;20170;-77
2022/01/02 04:38:44;;;;;;;6.18;4.45;;;12.90;99.90;;;;;;4999183;28;20576;-77
2022/01/02 04:41:10;;;;;;;5.80;4.70;;;12.90;99.90;;;;;;4999142;28;20285;-76
2022/01/02 04:43:36;;;;;;;4.27;3.77;;;12.90;99.90;;;;;;4998657;28;20682;-76
2022/01/02 04:46:03;;;;;;;6.38;3.95;;;12.90;99.90;;;;;;4998079;28;20565;-77
2022/01/02 04:48:30;;;;;;;4.68;3.95;;;12.90;99.90;;;;;;4998532;28;20285;-77
2022/01/02 04:50:55;;;;;;;4.70;3.80;;;12.90;99.90;;;;;;5015503;28;20158;-77
2022/01/02 04:53:22;;;;;;;5.17;4.47;;;12.90;99.90;;;;;;4997295;28;20309;-77
2022/01/02 04:55:49;;;;;;;6.05;4.68;;;12.90;99.90;;;;;;4981584;28;20532;-77
2022/01/02 04:58:16;;;;;;;4.95;4.28;;;12.90;99.90;;;;;;4997551;28;20268;-77
2022/01/02 05:00:43;;;;;;;5.53;4.30;;;12.90;99.90;;;;;;4997752;28;20827;-77
2022/01/02 05:03:09;;;;;;;6.75;5.35;;;12.80;99.90;;;;;;4997268;28;20190;-77
2022/01/02 05:05:36;;;;;;;4.78;4.30;;;12.80;99.90;;;;;;4997402;28;20174;-76
2022/01/02 05:08:02;;;;;;;5.83;4.53;;;12.70;99.90;;;;;;4997563;28;20261;-77
2022/01/02 05:10:28;;;;;;;5.80;5.22;;;12.70;99.90;;;;;;4997642;28;20186;-76
2022/01/02 05:12:55;;;;;;;6.07;5.25;;;12.70;99.90;;;;;;4997036;28;20182;-76
2022/01/02 05:15:21;;;;;;;6.23;4.60;;;12.60;99.90;;;;;;5014770;28;20175;-76
2022/01/02 05:17:49;;;;;;;5.47;4.35;;;12.60;99.90;;;;;;4997288;28;20163;-76
2022/01/02 05:20:15;;;;;;;6.68;4.78;;;12.60;99.90;;;;;;5014705;28;20266;-76
2022/01/02 05:22:41;;;;;;;5.10;4.50;;;12.50;99.90;;;;;;4996953;28;20233;-77
2022/01/02 05:25:07;;;;;;;6.13;5.13;;;12.50;99.90;;;;;;4996889;28;20183;-76
2022/01/02 05:27:33;;;;;;;5.45;4.50;;;12.60;99.90;;;;;;4996951;28;20178;-77
2022/01/02 05:29:59;;;;;;;6.00;4.87;;;12.60;99.90;;;;;;4997075;28;20293;-77
2022/01/02 05:32:25;;;;;;;4.80;4.35;;;12.50;99.90;;;;;;4996715;28;20241;-77
2022/01/02 05:34:51;;;;;;;6.05;5.03;;;12.50;99.90;;;;;;4996781;28;20202;-77
2022/01/02 05:37:17;;;;;;;6.50;5.07;;;12.50;99.90;;;;;;5014459;28;20209;-77
2022/01/02 05:39:44;;;;;;;7.32;4.57;;;12.50;99.90;;;;;;4996714;28;20180;-77
2022/01/02 05:42:10;;;;;;;5.50;4.73;;;12.50;99.90;;;;;;5013962;28;20170;-77
2022/01/02 05:44:36;;;;;;;5.82;5.32;;;12.50;99.90;;;;;;4996555;28;21128;-77
2022/01/02 05:47:03;;;;;;;7.88;5.15;;;12.50;99.90;;;;;;4996795;28;20173;-76
2022/01/02 05:49:29;;;;;;;7.97;4.85;;;12.50;99.90;;;;;;4996584;28;20210;-77
2022/01/02 05:51:55;;;;;;;12.07;5.73;;;12.50;99.90;;;;;;4996763;28;20213;-77
2022/01/02 05:54:21;;;;;;;5.65;5.15;;;12.50;99.90;;;;;;4996099;28;20198;-76
2022/01/02 05:56:47;;;;;;;6.55;5.35;;;12.50;99.90;;;;;;4996656;28;20535;-77
2022/01/02 05:59:13;;;;;;;5.23;4.73;;;12.40;99.90;;;;;;4996392;28;20178;-77
2022/01/02 06:01:40;;;;;;;6.50;5.88;;;12.40;99.90;;;;;;4996283;28;20581;-77
2022/01/02 06:04:06;;;;;;;5.18;4.70;;;12.40;99.90;;;;;;4995983;28;20197;-76
2022/01/02 06:06:32;;;;;;;6.22;4.70;;;12.40;99.90;;;;;;4996523;28;20704;-76
2022/01/02 06:08:59;;;;;;;6.28;4.90;;;12.30;99.90;;;;;;5013644;28;20260;-76
2022/01/02 06:11:25;;;;;;;6.83;4.70;;;12.40;99.90;;;;;;4996375;28;20167;-76
2022/01/02 06:13:51;;;;;;;6.87;5.13;;;12.40;99.90;;;;;;4995769;28;20601;-76
2022/01/02 06:16:18;;;;;;;5.55;5.05;;;12.30;99.90;;;;;;4996151;28;20749;-76
2022/01/02 06:18:44;;;;;;;5.53;5.03;;;12.30;99.90;;;;;;4996122;28;20171;-76
2022/01/02 06:21:10;;;;;;;6.57;4.70;;;12.30;99.90;;;;;;4996121;28;20183;-76
2022/01/02 06:23:37;;;;;;;4.55;4.13;;;12.30;99.90;;;;;;4995540;28;20964;-76
2022/01/02 06:26:03;;;;;;;5.83;4.77;;;12.30;99.90;;;;;;5013435;28;20171;-76
2022/01/02 06:28:29;;;;;;;4.95;4.50;;;12.40;99.90;;;;;;4995756;28;20579;-76
2022/01/02 06:30:56;;;;;;;5.55;4.35;;;12.40;99.90;;;;;;5013405;28;20289;-77
2022/01/02 06:33:22;;;;;;;6.90;4.37;;;12.40;99.90;;;;;;4995383;28;20281;-76
2022/01/02 06:35:49;;;;;;;4.67;4.20;;;12.40;99.90;;;;;;4979540;28;20512;-76
2022/01/02 06:38:21;;;;;;;6.53;5.05;;;12.40;99.90;;;;;;4995865;28;20162;-76
2022/01/02 06:40:51;;;;;;;4.65;4.25;;;12.40;99.90;;;;;;4980153;28;20204;-76
2022/01/02 06:43:20;;;;;;;6.65;4.57;;;12.50;99.90;;;;;;4995040;28;20194;-76
2022/01/02 06:45:47;;;;;;;5.00;4.07;;;12.50;99.90;;;;;;4995808;28;20589;-76
2022/01/02 06:48:13;;;;;;;5.13;4.63;;;12.40;99.90;;;;;;4995432;28;20170;-76
2022/01/02 06:50:39;;;;;;;4.85;4.00;;;12.40;99.90;;;;;;4995532;28;20175;-77
2022/01/02 06:53:06;;;;;;;6.28;4.28;;;12.50;99.90;;;;;;4994344;28;20182;-76
2022/01/02 06:55:32;;;;;;;6.93;4.50;;;12.50;99.90;;;;;;4995422;28;20170;-76
2022/01/02 06:57:58;;;;;;;5.27;4.07;;;12.50;99.90;;;;;;4995330;28;20516;-76
2022/01/02 07:00:25;;;;;;;6.28;4.88;;;12.50;99.90;;;;;;4995501;28;20170;-76
2022/01/02 07:02:51;;;;;;;6.05;5.45;;;12.50;99.90;;;;;;4994765;28;20190;-76
2022/01/02 07:05:17;;;;;;;4.87;4.37;;;12.50;99.90;;;;;;4995208;28;20170;-76
2022/01/02 07:07:45;;;;;;;5.55;3.50;;;12.50;99.90;;;;;;4978941;28;20566;-76
2022/01/02 07:10:14;;;;;;;4.93;4.40;;;12.50;99.90;;;;;;4995027;28;20230;-76
2022/01/02 07:12:40;;;;;;;4.55;4.00;;;12.50;99.90;;;;;;5012488;28;20194;-76
2022/01/02 07:15:08;;;;;;;7.77;5.30;;;12.50;99.90;;;;;;5012234;28;20162;-77
2022/01/02 07:17:34;;;;;;;8.63;4.47;;;12.50;99.90;;;;;;5012143;28;20573;-76
2022/01/02 07:19:59;;;;;;;5.90;4.10;;;12.50;99.90;;;;;;5010557;28;20186;-76
2022/01/02 07:22:25;;;;;;;9.00;4.90;;;12.50;99.90;;;;;;4994285;28;20619;-77
2022/01/02 07:24:51;;;;;;;5.93;4.70;;;12.50;99.90;;;;;;5011792;28;20232;-76
2022/01/02 07:27:19;;;;;;;6.70;4.43;;;12.40;99.90;;;;;;4978109;28;20698;-76
2022/01/02 07:29:46;;;;;;;6.70;4.30;;;12.50;99.90;;;;;;5011462;28;20546;-76
2022/01/02 07:32:12;;;;;;;4.90;3.92;;;12.50;99.90;;;;;;5011780;28;20201;-76
2022/01/02 07:34:37;;;;;;;3.70;3.40;;;12.50;99.90;;;;;;5011822;28;20202;-76
2022/01/02 07:37:03;;;;;;;3.93;3.63;;;12.50;99.90;;;;;;5011334;28;20568;-76
2022/01/02 07:39:29;;;;;;;4.50;4.10;;;12.60;99.90;;;;;;5002114;28;20175;-76
2022/01/02 07:41:55;;;;;;;4.63;3.80;;;12.60;99.90;;;;;;4997174;28;20236;-76
2022/01/02 07:44:27;;;;;;;5.38;4.30;;;12.60;99.90;;;;;;4993978;28;20221;-76
2022/01/02 07:46:53;;;;;;;6.13;4.17;;;12.70;99.90;;;;;;5010683;28;20215;-76
2022/01/02 07:49:19;;;;;;;6.90;4.37;;;12.60;99.90;;;;;;5011685;28;20549;-77
2022/01/02 07:51:45;;;;;;;5.63;4.50;;;12.60;99.90;;;;;;5011803;28;20167;-77
2022/01/02 07:54:12;;;;;;;5.67;4.10;;;12.60;99.90;;;;;;4993334;28;20640;-77
2022/01/02 07:56:38;;;;;;;4.50;3.78;;;12.60;99.90;;;;;;5011892;28;20174;-76
2022/01/02 07:59:04;;;;;;;4.45;3.72;;;12.60;99.90;;;;;;5011561;28;20174;-77
2022/01/02 08:01:30;;;;;;;8.03;4.27;;;12.60;99.90;;;;;;5011807;28;20173;-76
2022/01/02 08:03:56;;;;;;;5.23;4.43;;;12.50;99.90;;;;;;5011071;28;20186;-77
2022/01/02 08:06:21;;;;;;;4.90;4.13;;;12.60;99.90;;;;;;5011694;28;20189;-76
2022/01/02 08:08:47;;;;;;;4.70;3.40;;;12.60;99.90;;;;;;5011395;28;20198;-76
2022/01/02 08:11:15;;;;;;;6.20;4.10;;;12.50;99.90;;;;;;4993512;28;20197;-76
2022/01/02 08:13:42;;;;;;;4.22;3.75;;;12.50;99.90;;;;;;5010217;28;20190;-77
2022/01/02 08:16:08;;;;;;;4.47;3.88;;;12.50;99.90;;;;;;5010738;28;20719;-77
2022/01/02 08:18:33;;;;;;;4.93;3.20;;;12.50;99.90;;;;;;5011307;28;20166;-76
2022/01/02 08:20:59;;;;;;;4.37;3.37;;;12.60;99.90;;;;;;5010653;28;20190;-77
2022/01/02 08:23:25;;;;;;;5.57;4.47;;;12.60;99.90;;;;;;5010621;28;20611;-77
2022/01/02 08:25:51;;;;;;;3.80;3.40;;;12.60;99.90;;;;;;5011065;28;20185;-76
2022/01/02 08:28:16;;;;;;;4.10;3.33;;;12.70;99.90;;;;;;5010433;28;20178;-77
2022/01/02 08:30:43;;;;;;;4.23;3.83;;;12.70;99.90;;;;;;5011210;28;20217;-77
2022/01/02 08:33:11;;;;;;;3.40;3.10;;;12.70;99.90;;;;;;5010264;28;20190;-76
2022/01/02 08:35:38;;;;;;;7.38;3.75;;;12.70;99.90;;;;;;4990090;28;20509;-76
2022/01/02 08:38:04;;;;;;;5.45;2.90;;;12.70;99.90;;;;;;4991303;28;20171;-76
2022/01/02 08:40:30;;;;;;;3.17;2.87;;;12.70;99.90;;;;;;5002295;28;20532;-77
2022/01/02 08:42:56;;;;;;;4.60;3.75;;;12.70;99.90;;;;;;5010904;28;20601;-77
2022/01/02 08:45:23;;;;;;;3.77;3.20;;;12.80;99.90;;;;;;5010889;28;20704;-77
2022/01/02 08:47:49;;;;;;;4.00;2.90;;;12.80;99.90;;;;;;5011347;28;20172;-77
2022/01/02 08:50:15;;;;;;;3.33;2.83;;;12.90;99.90;;;;;;5011009;28;20569;-76
2022/01/02 08:52:41;;;;;;;4.33;3.00;;;12.90;99.90;;;;;;5011018;28;20190;-77
2022/01/02 08:55:07;;;;;;;2.97;2.57;;;12.90;99.90;;;;;;5010787;28;20167;-77
2022/01/02 08:57:33;;;;;;;2.67;2.45;;;12.90;99.90;;;;;;4993691;28;20569;-76
2022/01/02 08:59:59;;;;;;;3.30;2.90;;;12.90;99.90;;;;;;5009778;28;20220;-76
2022/01/02 09:02:24;;;;;;;2.80;2.30;;;13.00;99.90;;;;;;5011071;28;20539;-76
2022/01/02 09:04:50;;;;;;;3.17;2.50;;;13.00;99.90;;;;;;5010702;28;20201;-76
2022/01/02 09:07:16;;;;;;;5.30;2.73;;;13.00;99.90;;;;;;4993481;28;20185;-77
2022/01/02 09:09:42;;;;;;;3.60;2.40;;;13.10;99.90;;;;;;5010920;28;20208;-76
2022/01/02 09:12:08;;;;;;;3.30;2.77;;;13.10;99.90;;;;;;5010782;28;20249;-77
2022/01/02 09:14:35;;;;;;;4.28;2.55;;;13.20;99.90;;;;;;4992610;28;20259;-76
2022/01/02 09:17:01;;;;;;;2.97;1.95;;;13.20;99.90;;;;;;5013351;28;20603;-76
2022/01/02 09:19:27;;;;;;;3.47;2.80;;;13.30;99.90;;;;;;4995469;28;20190;-76
2022/01/02 09:21:53;;;;;;;3.60;2.70;;;13.20;99.90;;;;;;4961220;28;20583;-78
2022/01/02 09:24:18;;;;;;;2.17;1.97;;;13.20;99.90;;;;;;4994372;28;20210;-77
2022/01/02 09:26:44;;;;;;;2.60;2.20;;;13.30;99.90;;;;;;4994446;28;20221;-77
2022/01/02 09:29:10;;;;;;;2.10;1.60;;;13.30;99.90;;;;;;4994623;28;20201;-77
2022/01/02 09:31:36;;;;;;;4.07;2.33;;;13.40;99.90;;;;;;4994625;28;20167;-77
2022/01/02 09:34:02;;;;;;;3.70;2.47;;;13.40;99.90;;;;;;4960803;28;20225;-78
2022/01/02 09:36:28;;;;;;;2.90;2.17;;;13.40;99.90;;;;;;5001535;28;20644;-77
2022/01/02 09:38:54;;;;;;;3.10;2.80;;;13.40;99.90;;;;;;4996177;28;20593;-77
2022/01/02 09:41:20;;;;;;;2.33;2.13;;;13.40;99.90;;;;;;4995500;28;20186;-77
2022/01/02 09:43:50;;;;;;;4.55;2.20;;;13.40;99.90;;;;;;4998092;28;20216;-77
2022/01/02 09:46:24;;;;;;;3.07;2.47;;;13.40;99.90;;;;;;5013532;28;20190;-77
2022/01/02 09:48:52;;;;;;;3.22;2.03;;;13.40;99.90;;;;;;5013414;28;20632;-78
2022/01/02 09:51:20;;;;;;;2.77;2.47;;;13.50;99.90;;;;;;5013597;28;20178;-78
2022/01/02 09:53:47;;;;;;;3.40;2.47;;;13.50;99.90;;;;;;4990756;28;20764;-80
2022/01/02 09:56:16;;;;;;;2.07;1.70;;;13.50;99.90;;;;;;5013136;28;20602;-79
2022/01/02 09:58:45;;;;;;;3.10;1.80;;;13.60;99.90;;;;;;4995104;28;20624;-79
2022/01/02 10:01:19;;;;;;;2.33;1.80;;;13.70;99.90;;;;;;5013053;28;20944;-79
2022/01/02 10:03:51;;;;;;;2.30;2.00;;;13.80;99.90;;;;;;5013477;28;21044;-78
2022/01/02 10:06:18;;;;;;;2.10;1.63;;;13.90;99.90;;;;;;5013083;28;20666;-77
2022/01/02 10:08:44;;;;;;;2.27;2.07;;;14.00;99.90;;;;;;5013622;28;20628;-78
2022/01/02 10:11:18;;;;;;;2.80;1.50;;;14.10;99.90;;;;;;5013961;28;20565;-79
2022/01/02 10:13:47;;;;;;;1.97;1.20;;;14.20;99.90;;;;;;5013601;28;20636;-76
2022/01/02 10:16:33;;;;;;;2.53;1.20;;;14.30;99.90;;;;;;5013552;28;20566;-77
2022/01/02 10:19:29;;;;;;;5.00;2.10;;;14.50;99.90;;;;;;4996282;28;20674;-77
2022/01/02 10:22:02;;;;;;;3.22;1.50;;;14.60;99.90;;;;;;4996165;28;20623;-78
2022/01/02 10:24:29;;;;;;;2.03;1.67;;;14.70;99.90;;;;;;4979694;28;20530;-78
2022/01/02 10:27:15;;;;;;;2.03;1.40;;;14.80;99.90;;;;;;5012547;28;20564;-79
2022/01/02 10:29:51;;;;;;;2.20;1.30;;;14.90;99.90;;;;;;4995945;28;20628;-78
2022/01/02 10:32:33;;;;;;;2.80;1.23;;;15.00;99.90;;;;;;5013476;28;20603;-78
2022/01/02 10:35:21;;;;;;;1.80;1.43;;;15.00;99.90;;;;;;4996408;28;20572;-79
2022/01/02 10:37:52;;;;;;;3.63;1.60;;;15.10;99.90;;;;;;4995880;28;20568;-78
2022/01/02 10:40:39;;;;;;;2.00;1.50;;;15.20;99.90;;;;;;5013447;28;20565;-78
2022/01/02 10:43:27;;;;;;;2.20;1.63;;;15.20;99.90;;;;;;5012936;28;20601;-78
2022/01/02 10:45:55;;;;;;;2.57;1.63;;;15.30;99.90;;;;;;4989191;28;20571;-77
2022/01/02 10:48:38;;;;;;;2.90;1.77;;;15.40;99.90;;;;;;4997655;28;20617;-78
2022/01/02 10:51:09;;;;;;;2.50;1.80;;;15.50;99.90;;;;;;4993596;28;20570;-76
2022/01/02 10:53:37;;;;;;;2.17;1.20;;;15.60;99.90;;;;;;4975611;28;20625;-78
2022/01/02 10:56:05;;;;;;;2.47;1.43;;;15.70;99.90;;;;;;4993649;28;20601;-77
2022/01/02 10:58:33;;;;;;;3.53;2.40;;;15.90;99.90;;;;;;4993592;28;21098;-77
2022/01/02 11:01:05;;;;;;;3.17;1.57;;;16.10;99.90;;;;;;4993479;28;20967;-77
2022/01/02 11:03:31;;;;;;;2.60;1.57;;;16.20;99.90;;;;;;4993299;28;20621;-76
2022/01/02 11:06:04;;;;;;;3.90;1.70;;;16.30;99.90;;;;;;4975602;28;20575;-76
2022/01/02 11:08:34;;;;;;;2.80;1.50;;;16.40;99.90;;;;;;4993359;28;21162;-76
2022/01/02 11:11:01;;;;;;;2.03;1.00;;;16.60;99.90;;;;;;4991807;28;20566;-76
2022/01/02 11:13:27;;;;;;;2.07;1.33;;;16.70;99.90;;;;;;4991503;28;20614;-76
2022/01/02 11:15:54;;;;;;;5.57;1.80;;;16.80;99.90;;;;;;4991908;28;21098;-77
2022/01/02 11:18:23;;;;;;;3.80;1.87;;;16.90;99.90;;;;;;4993055;28;20899;-77
2022/01/02 11:20:49;;;;;;;2.97;1.67;;;17.00;99.90;;;;;;4991732;28;20582;-77
2022/01/02 11:23:27;;;;;;;3.70;2.00;;;17.10;99.90;;;;;;4992448;28;20672;-77
2022/01/02 11:26:15;;;;;;;3.10;1.50;;;17.20;99.90;;;;;;4992689;28;20737;-77
2022/01/02 11:28:51;;;;;;;2.83;1.50;;;17.30;99.90;;;;;;4992681;28;20206;-76
2022/01/02 11:31:34;;;;;;;3.47;1.47;;;17.40;99.90;;;;;;4992879;28;20652;-77
2022/01/02 11:34:01;;;;;;;3.17;1.90;;;17.50;99.90;;;;;;4974733;28;20947;-77
2022/01/02 11:36:32;;;;;;;4.00;2.00;;;17.50;99.90;;;;;;4992708;28;21088;-77
2022/01/02 11:39:01;;;;;;;3.50;2.90;;;17.60;99.90;;;;;;4991138;28;20590;-77
2022/01/02 11:41:54;;;;;;;6.30;3.50;;;17.70;99.90;;;;;;4991247;28;20558;-77
2022/01/02 11:44:22;;;;;;;3.60;1.97;;;17.70;99.90;;;;;;4973405;28;20614;-77
2022/01/02 11:46:56;;;;;;;3.73;2.90;;;17.70;99.90;;;;;;4992575;28;20557;-77
2022/01/02 11:49:39;;;;;;;4.87;1.93;;;17.70;99.90;;;;;;4991434;28;20613;-78
2022/01/02 11:52:06;;;;;;;4.93;2.30;;;17.80;99.90;;;;;;4975110;28;20574;-77
2022/01/02 11:54:39;;;;;;;7.03;2.50;;;17.70;99.90;;;;;;4974833;28;20579;-77
2022/01/02 11:57:10;;;;;;;2.23;1.20;;;17.70;99.90;;;;;;4992470;28;20576;-76
2022/01/02 11:59:39;;;;;;;2.70;1.73;;;17.70;99.90;;;;;;4992524;28;20574;-77
2022/01/02 12:02:10;;;;;;;3.13;1.30;;;17.60;99.90;;;;;;4991081;28;20932;-76
2022/01/02 12:07:53;;;;;;;3.00;1.40;;;17.50;99.90;;;;;;4958042;28;20571;-77
2022/01/02 12:10:23;;;;;;;4.70;1.80;;;17.50;99.90;;;;;;4974886;28;20718;-77
2022/01/02 12:13:13;;;;;;;2.10;1.43;;;17.40;99.90;;;;;;4993664;28;20586;-77
2022/01/02 12:15:38;;;;;;;3.77;1.70;;;17.40;99.90;;;;;;4993807;28;20569;-77
2022/01/02 12:18:07;;;;;;;3.50;1.17;;;17.30;99.90;;;;;;5011631;28;20577;-77
2022/01/02 12:21:07;;;;;;;3.50;1.60;;;17.30;99.90;;;;;;5011392;28;20677;-77
2022/01/02 12:26:07;;;;;;;5.63;2.47;;;17.20;99.90;;;;;;4994361;28;20608;-77
2022/01/02 12:28:47;;;;;;;4.03;1.37;;;17.10;99.90;;;;;;4994146;28;20720;-77
2022/01/02 12:31:16;;;;;;;2.10;1.57;;;17.10;99.90;;;;;;4977982;28;20574;-76
2022/01/02 12:33:43;;;;;;;2.77;1.30;;;17.00;99.90;;;;;;5010133;28;21215;-77
2022/01/02 12:36:19;;;;;;;2.33;1.33;;;17.00;99.90;;;;;;5011654;28;20633;-77
2022/01/02 12:38:50;;;;;;;4.17;1.50;;;17.00;99.90;;;;;;5011878;28;20577;-77
2022/01/02 12:41:18;;;;;;;2.83;1.67;;;17.00;99.90;;;;;;4994094;28;20581;-77
2022/01/02 12:44:03;;;;;;;3.27;1.50;;;17.00;99.90;;;;;;5011969;28;20615;-77
2022/01/02 12:46:59;;;;;;;2.70;1.43;;;16.90;99.90;;;;;;5010638;28;20596;-77
2022/01/02 12:49:27;;;;;;;3.33;1.50;;;16.90;99.90;;;;;;4979303;28;20616;-76
2022/01/02 12:52:05;;;;;;;3.70;1.40;;;17.00;99.90;;;;;;5015919;28;20576;-78
2022/01/02 12:54:43;;;;;;;2.47;1.20;;;17.00;99.90;;;;;;5017521;28;20922;-77
2022/01/02 12:57:14;;;;;;;1.80;1.13;;;17.00;99.90;;;;;;5016996;28;20660;-76
2022/01/02 12:59:42;;;;;;;4.73;1.70;;;17.10;99.90;;;;;;5017408;28;20565;-77
2022/01/02 13:02:13;;;;;;;5.30;2.97;;;17.10;99.90;;;;;;4999379;28;20572;-76
2022/01/02 13:04:47;;;;;;;3.50;1.87;;;17.10;99.90;;;;;;5016679;28;20592;-76
2022/01/02 13:07:18;;;;;;;1.80;1.07;;;17.00;99.90;;;;;;5017641;28;20568;-76
2022/01/02 13:09:52;;;;;;;4.00;1.50;;;17.00;99.90;;;;;;5028831;28;20667;-76
2022/01/02 13:12:37;;;;;;;4.40;1.90;;;17.00;99.90;;;;;;5027719;28;20611;-76